Tuscaloosa, AL (35486)

9:32 AM CST on December 09, 2016 (GMT -0600)
Intermodal Facility @ City Hall | | Change Station

Elev 223 ft 33.21 °N, 87.57 °W | Updated 1 minute ago

Clear
Clear
33.0 °F
Feels Like 28 °F
N
5.0
Wind Variable Wind from North
Gusts 5.0 mph

Today
High -- | Low -- °F
--% Chance of Precip.
Yesterday
High -- | Low -- °F
Precip. -- in
Pressure 30.62 in
Visibility 10.0 miles
Clouds Clear
Windchill 28 °F
Dew Point 20 °F
Humidity 58%
Rainfall 0.00 in
Snow Depth Not available.
6:42 AM 4:43 PM
Waxing Gibbous, 75% visible
METAR KTCL 091453Z 01010KT 10SM CLR 00/M08 A3062 RMK AO2 SLP367 T00001083 51012
Pressure 30.62 in
Visibility 10.0 miles
Clouds Clear
Windchill 28 °F
Dew Point 20 °F
Humidity 58%
Rainfall 0.00 in
Snow Depth Not available.
6:42 AM 4:43 PM
Waxing Gibbous, 75% visible
METAR KTCL 091453Z 01010KT 10SM CLR 00/M08 A3062 RMK AO2 SLP367 T00001083 51012

10-Day Weather Forecast

Almanac

Astronomy

Dec. 09, 2016 Rise Set
Actual Time
Civil Twilight
Nautical Twilight
Astronomical Twilight
Moon
Length of Visible Light
Length of Day
Tomorrow will be .
, % of the Moon is Illuminated

Today's Extremes

State Highs State Lows

Community

WunderPhotos

Upload Photos

1,956,432 photos uploaded!

WunderBlog® & News

Nearby

Air Quality

  Air Quality AQ Index Pollutant
Not available.

Snow Depth

Station Depth Elevation

Earthquake Activity

City Distance Mag. Time & Date
Minimum magnitude displayed is 2.5.

Coastal Water Temperatures

Place Temperature

Stations

Nearby Weather Stations

Station Location Temp. Windchill Dew Point Humidity Wind Precip. Elev Updated Type
                   

Watches & Warnings

There are currently no watches in effect.